sensor_id;sensor_type;location;lat;lon;timestamp;P1;durP1;ratioP1;P2;durP2;ratioP2
38937;SDS011;24727;51.974;20.868;2023-03-23T00:00:21;42.08;;;23.35;;
38937;SDS011;24727;51.974;20.868;2023-03-23T00:02:46;37.88;;;22.42;;
38937;SDS011;24727;51.974;20.868;2023-03-23T00:05:12;42.35;;;22.63;;
38937;SDS011;24727;51.974;20.868;2023-03-23T00:07:38;40.85;;;23.80;;
38937;SDS011;24727;51.974;20.868;2023-03-23T00:10:10;35.95;;;21.33;;
38937;SDS011;24727;51.974;20.868;2023-03-23T00:12:38;35.95;;;22.05;;
38937;SDS011;24727;51.974;20.868;2023-03-23T00:15:08;37.45;;;21.50;;
38937;SDS011;24727;51.974;20.868;2023-03-23T00:17:38;35.20;;;18.80;;
38937;SDS011;24727;51.974;20.868;2023-03-23T00:20:07;35.30;;;21.80;;
38937;SDS011;24727;51.974;20.868;2023-03-23T00:22:35;35.92;;;20.52;;
38937;SDS011;24727;51.974;20.868;2023-03-23T00:25:03;35.00;;;20.27;;
38937;SDS011;24727;51.974;20.868;2023-03-23T00:27:31;35.10;;;18.98;;
38937;SDS011;24727;51.974;20.868;2023-03-23T00:29:59;33.20;;;19.60;;
38937;SDS011;24727;51.974;20.868;2023-03-23T00:32:25;35.13;;;20.42;;
38937;SDS011;24727;51.974;20.868;2023-03-23T00:34:56;32.20;;;21.17;;
38937;SDS011;24727;51.974;20.868;2023-03-23T00:37:26;35.85;;;20.73;;
38937;SDS011;24727;51.974;20.868;2023-03-23T00:39:54;38.67;;;21.17;;
38937;SDS011;24727;51.974;20.868;2023-03-23T00:42:22;35.63;;;19.42;;
38937;SDS011;24727;51.974;20.868;2023-03-23T00:44:49;36.20;;;21.55;;
38937;SDS011;24727;51.974;20.868;2023-03-23T00:47:15;37.72;;;20.30;;
38937;SDS011;24727;51.974;20.868;2023-03-23T00:49:42;33.47;;;20.05;;
38937;SDS011;24727;51.974;20.868;2023-03-23T00:52:09;32.70;;;19.77;;
38937;SDS011;24727;51.974;20.868;2023-03-23T00:54:35;34.60;;;19.27;;
38937;SDS011;24727;51.974;20.868;2023-03-23T00:57:03;33.33;;;19.35;;
38937;SDS011;24727;51.974;20.868;2023-03-23T00:59:30;29.83;;;18.92;;
38937;SDS011;24727;51.974;20.868;2023-03-23T01:01:57;34.75;;;20.30;;
38937;SDS011;24727;51.974;20.868;2023-03-23T01:04:24;32.22;;;19.17;;
38937;SDS011;24727;51.974;20.868;2023-03-23T01:06:53;30.90;;;17.77;;
38937;SDS011;24727;51.974;20.868;2023-03-23T01:09:19;27.70;;;18.27;;
38937;SDS011;24727;51.974;20.868;2023-03-23T01:11:49;33.33;;;19.08;;
38937;SDS011;24727;51.974;20.868;2023-03-23T01:14:17;32.63;;;19.40;;
38937;SDS011;24727;51.974;20.868;2023-03-23T01:16:44;28.58;;;18.92;;
38937;SDS011;24727;51.974;20.868;2023-03-23T01:19:10;36.80;;;20.23;;
38937;SDS011;24727;51.974;20.868;2023-03-23T01:21:37;35.78;;;20.17;;
38937;SDS011;24727;51.974;20.868;2023-03-23T01:24:05;31.20;;;18.13;;
38937;SDS011;24727;51.974;20.868;2023-03-23T01:26:31;29.83;;;19.15;;
38937;SDS011;24727;51.974;20.868;2023-03-23T01:28:57;32.20;;;19.13;;
38937;SDS011;24727;51.974;20.868;2023-03-23T01:31:24;32.17;;;18.88;;
38937;SDS011;24727;51.974;20.868;2023-03-23T01:33:51;34.15;;;18.58;;
38937;SDS011;24727;51.974;20.868;2023-03-23T01:36:25;31.95;;;17.65;;
38937;SDS011;24727;51.974;20.868;2023-03-23T01:38:55;30.38;;;17.85;;
38937;SDS011;24727;51.974;20.868;2023-03-23T01:41:23;30.70;;;17.27;;
38937;SDS011;24727;51.974;20.868;2023-03-23T01:44:06;27.90;;;17.92;;
38937;SDS011;24727;51.974;20.868;2023-03-23T01:46:52;26.98;;;17.42;;
38937;SDS011;24727;51.974;20.868;2023-03-23T01:49:21;31.08;;;18.10;;
38937;SDS011;24727;51.974;20.868;2023-03-23T01:52:19;30.00;;;18.38;;
38937;SDS011;24727;51.974;20.868;2023-03-23T01:54:51;28.75;;;17.83;;
38937;SDS011;24727;51.974;20.868;2023-03-23T01:57:21;27.27;;;17.60;;
38937;SDS011;24727;51.974;20.868;2023-03-23T01:59:52;30.93;;;17.87;;
38937;SDS011;24727;51.974;20.868;2023-03-23T02:02:22;33.60;;;18.25;;
38937;SDS011;24727;51.974;20.868;2023-03-23T02:04:52;26.70;;;17.73;;
38937;SDS011;24727;51.974;20.868;2023-03-23T02:07:25;29.70;;;17.45;;
38937;SDS011;24727;51.974;20.868;2023-03-23T02:09:51;26.60;;;16.52;;
38937;SDS011;24727;51.974;20.868;2023-03-23T02:12:18;29.42;;;16.75;;
38937;SDS011;24727;51.974;20.868;2023-03-23T02:14:45;27.33;;;16.10;;
38937;SDS011;24727;51.974;20.868;2023-03-23T02:17:23;23.70;;;15.65;;
38937;SDS011;24727;51.974;20.868;2023-03-23T02:20:07;27.17;;;16.75;;
38937;SDS011;24727;51.974;20.868;2023-03-23T02:23:20;26.95;;;16.40;;
38937;SDS011;24727;51.974;20.868;2023-03-23T02:31:11;30.55;;;17.08;;
38937;SDS011;24727;51.974;20.868;2023-03-23T02:33:46;28.80;;;16.88;;
38937;SDS011;24727;51.974;20.868;2023-03-23T02:41:54;25.70;;;16.27;;
38937;SDS011;24727;51.974;20.868;2023-03-23T02:44:29;32.17;;;16.85;;
38937;SDS011;24727;51.974;20.868;2023-03-23T02:46:59;25.30;;;16.13;;
38937;SDS011;24727;51.974;20.868;2023-03-23T02:49:28;23.88;;;15.90;;
38937;SDS011;24727;51.974;20.868;2023-03-23T02:51:58;26.30;;;16.30;;
38937;SDS011;24727;51.974;20.868;2023-03-23T02:54:27;26.10;;;16.75;;
38937;SDS011;24727;51.974;20.868;2023-03-23T02:56:54;26.92;;;16.35;;
38937;SDS011;24727;51.974;20.868;2023-03-23T02:59:24;26.52;;;16.13;;
38937;SDS011;24727;51.974;20.868;2023-03-23T03:01:50;24.83;;;16.50;;
38937;SDS011;24727;51.974;20.868;2023-03-23T03:04:24;27.85;;;16.73;;
38937;SDS011;24727;51.974;20.868;2023-03-23T03:09:42;25.10;;;16.25;;
38937;SDS011;24727;51.974;20.868;2023-03-23T03:12:31;23.38;;;15.18;;
38937;SDS011;24727;51.974;20.868;2023-03-23T03:15:09;26.38;;;15.90;;
38937;SDS011;24727;51.974;20.868;2023-03-23T03:18:08;27.65;;;16.58;;
38937;SDS011;24727;51.974;20.868;2023-03-23T03:20:43;30.50;;;16.83;;
38937;SDS011;24727;51.974;20.868;2023-03-23T03:23:14;29.20;;;16.42;;
38937;SDS011;24727;51.974;20.868;2023-03-23T03:25:44;23.92;;;16.45;;
38937;SDS011;24727;51.974;20.868;2023-03-23T03:28:16;27.73;;;17.30;;
38937;SDS011;24727;51.974;20.868;2023-03-23T03:30:49;23.50;;;15.48;;
38937;SDS011;24727;51.974;20.868;2023-03-23T03:33:19;26.35;;;16.05;;
38937;SDS011;24727;51.974;20.868;2023-03-23T03:35:51;27.63;;;16.75;;
38937;SDS011;24727;51.974;20.868;2023-03-23T03:38:21;26.35;;;16.88;;
38937;SDS011;24727;51.974;20.868;2023-03-23T03:40:47;27.67;;;17.60;;
38937;SDS011;24727;51.974;20.868;2023-03-23T03:43:13;28.67;;;15.65;;
38937;SDS011;24727;51.974;20.868;2023-03-23T03:45:40;30.25;;;16.33;;
38937;SDS011;24727;51.974;20.868;2023-03-23T03:48:07;29.50;;;17.13;;
38937;SDS011;24727;51.974;20.868;2023-03-23T03:50:34;27.27;;;16.95;;
38937;SDS011;24727;51.974;20.868;2023-03-23T03:53:00;30.23;;;17.25;;
38937;SDS011;24727;51.974;20.868;2023-03-23T03:55:26;29.27;;;16.60;;
38937;SDS011;24727;51.974;20.868;2023-03-23T03:57:56;28.90;;;16.63;;
38937;SDS011;24727;51.974;20.868;2023-03-23T04:00:23;30.27;;;17.08;;
38937;SDS011;24727;51.974;20.868;2023-03-23T04:02:49;33.60;;;18.83;;
38937;SDS011;24727;51.974;20.868;2023-03-23T04:05:20;27.83;;;17.13;;
38937;SDS011;24727;51.974;20.868;2023-03-23T04:07:47;29.52;;;17.38;;
38937;SDS011;24727;51.974;20.868;2023-03-23T04:10:17;23.92;;;15.98;;
38937;SDS011;24727;51.974;20.868;2023-03-23T04:12:48;24.25;;;15.70;;
38937;SDS011;24727;51.974;20.868;2023-03-23T04:15:15;24.27;;;16.38;;
38937;SDS011;24727;51.974;20.868;2023-03-23T04:17:41;24.95;;;16.08;;
38937;SDS011;24727;51.974;20.868;2023-03-23T04:20:09;27.02;;;16.38;;
38937;SDS011;24727;51.974;20.868;2023-03-23T04:22:45;23.98;;;15.63;;
38937;SDS011;24727;51.974;20.868;2023-03-23T04:25:15;29.27;;;16.50;;
38937;SDS011;24727;51.974;20.868;2023-03-23T04:27:46;27.83;;;16.38;;
38937;SDS011;24727;51.974;20.868;2023-03-23T04:30:20;30.77;;;16.90;;
38937;SDS011;24727;51.974;20.868;2023-03-23T04:32:50;28.23;;;16.92;;
38937;SDS011;24727;51.974;20.868;2023-03-23T04:35:18;24.88;;;15.60;;
38937;SDS011;24727;51.974;20.868;2023-03-23T04:37:45;23.77;;;15.07;;
38937;SDS011;24727;51.974;20.868;2023-03-23T04:40:12;25.73;;;16.10;;
38937;SDS011;24727;51.974;20.868;2023-03-23T04:42:40;27.52;;;16.08;;
38937;SDS011;24727;51.974;20.868;2023-03-23T04:45:12;25.02;;;15.50;;
38937;SDS011;24727;51.974;20.868;2023-03-23T04:47:40;24.30;;;15.52;;
38937;SDS011;24727;51.974;20.868;2023-03-23T04:50:09;25.42;;;15.80;;
38937;SDS011;24727;51.974;20.868;2023-03-23T04:52:41;23.00;;;16.00;;
38937;SDS011;24727;51.974;20.868;2023-03-23T04:55:11;24.17;;;15.98;;
38937;SDS011;24727;51.974;20.868;2023-03-23T04:57:39;27.63;;;16.13;;
38937;SDS011;24727;51.974;20.868;2023-03-23T05:00:06;26.38;;;16.38;;
38937;SDS011;24727;51.974;20.868;2023-03-23T05:02:40;28.40;;;16.00;;
38937;SDS011;24727;51.974;20.868;2023-03-23T05:05:07;24.42;;;16.10;;
38937;SDS011;24727;51.974;20.868;2023-03-23T05:07:36;26.58;;;16.63;;
38937;SDS011;24727;51.974;20.868;2023-03-23T05:10:08;33.15;;;17.02;;
38937;SDS011;24727;51.974;20.868;2023-03-23T05:12:37;26.35;;;16.33;;
38937;SDS011;24727;51.974;20.868;2023-03-23T05:15:04;24.75;;;16.15;;
38937;SDS011;24727;51.974;20.868;2023-03-23T05:17:32;27.45;;;16.77;;
38937;SDS011;24727;51.974;20.868;2023-03-23T05:19:59;30.08;;;17.05;;
38937;SDS011;24727;51.974;20.868;2023-03-23T05:22:30;24.13;;;15.38;;
38937;SDS011;24727;51.974;20.868;2023-03-23T05:24:59;21.52;;;14.55;;
38937;SDS011;24727;51.974;20.868;2023-03-23T05:27:29;22.83;;;14.38;;
38937;SDS011;24727;51.974;20.868;2023-03-23T05:29:56;19.52;;;14.18;;
38937;SDS011;24727;51.974;20.868;2023-03-23T05:32:26;26.70;;;14.00;;
38937;SDS011;24727;51.974;20.868;2023-03-23T05:34:59;23.88;;;15.07;;
38937;SDS011;24727;51.974;20.868;2023-03-23T05:37:27;25.25;;;14.57;;
38937;SDS011;24727;51.974;20.868;2023-03-23T05:39:59;22.40;;;14.68;;
38937;SDS011;24727;51.974;20.868;2023-03-23T05:42:33;23.00;;;13.43;;
38937;SDS011;24727;51.974;20.868;2023-03-23T05:45:03;21.95;;;14.18;;
38937;SDS011;24727;51.974;20.868;2023-03-23T05:47:31;22.02;;;13.98;;
38937;SDS011;24727;51.974;20.868;2023-03-23T05:49:57;28.23;;;13.50;;
38937;SDS011;24727;51.974;20.868;2023-03-23T05:52:24;22.33;;;13.32;;
38937;SDS011;24727;51.974;20.868;2023-03-23T05:54:50;22.02;;;14.07;;
38937;SDS011;24727;51.974;20.868;2023-03-23T05:57:17;19.38;;;13.55;;
38937;SDS011;24727;51.974;20.868;2023-03-23T05:59:44;19.08;;;13.00;;
38937;SDS011;24727;51.974;20.868;2023-03-23T06:02:10;21.05;;;13.50;;
38937;SDS011;24727;51.974;20.868;2023-03-23T06:04:39;20.35;;;13.32;;
38937;SDS011;24727;51.974;20.868;2023-03-23T06:07:06;20.08;;;13.55;;
38937;SDS011;24727;51.974;20.868;2023-03-23T06:09:38;19.75;;;13.00;;
38937;SDS011;24727;51.974;20.868;2023-03-23T06:12:04;19.40;;;13.13;;
38937;SDS011;24727;51.974;20.868;2023-03-23T06:14:31;18.45;;;12.85;;
38937;SDS011;24727;51.974;20.868;2023-03-23T06:16:58;20.10;;;12.63;;
38937;SDS011;24727;51.974;20.868;2023-03-23T06:19:25;21.13;;;12.77;;
38937;SDS011;24727;51.974;20.868;2023-03-23T06:21:55;18.75;;;12.88;;
38937;SDS011;24727;51.974;20.868;2023-03-23T06:24:22;20.42;;;13.10;;
38937;SDS011;24727;51.974;20.868;2023-03-23T06:26:48;23.33;;;13.55;;
38937;SDS011;24727;51.974;20.868;2023-03-23T06:29:15;23.70;;;14.60;;
38937;SDS011;24727;51.974;20.868;2023-03-23T06:31:43;20.33;;;13.77;;
38937;SDS011;24727;51.974;20.868;2023-03-23T06:34:18;23.90;;;14.30;;
38937;SDS011;24727;51.974;20.868;2023-03-23T06:36:43;21.20;;;13.82;;
38937;SDS011;24727;51.974;20.868;2023-03-23T06:39:10;20.33;;;13.85;;
38937;SDS011;24727;51.974;20.868;2023-03-23T06:41:36;23.40;;;14.40;;
38937;SDS011;24727;51.974;20.868;2023-03-23T06:44:02;19.83;;;13.15;;
38937;SDS011;24727;51.974;20.868;2023-03-23T06:46:28;25.25;;;13.90;;
38937;SDS011;24727;51.974;20.868;2023-03-23T06:48:56;21.90;;;12.93;;
38937;SDS011;24727;51.974;20.868;2023-03-23T06:51:22;22.85;;;13.32;;
38937;SDS011;24727;51.974;20.868;2023-03-23T06:53:50;20.65;;;13.07;;
38937;SDS011;24727;51.974;20.868;2023-03-23T06:56:22;19.02;;;12.90;;
38937;SDS011;24727;51.974;20.868;2023-03-23T07:01:14;20.13;;;12.38;;
38937;SDS011;24727;51.974;20.868;2023-03-23T07:03:41;20.90;;;12.88;;
38937;SDS011;24727;51.974;20.868;2023-03-23T07:06:08;17.10;;;11.90;;
38937;SDS011;24727;51.974;20.868;2023-03-23T07:08:36;20.55;;;13.13;;
38937;SDS011;24727;51.974;20.868;2023-03-23T07:11:02;19.35;;;12.07;;
38937;SDS011;24727;51.974;20.868;2023-03-23T07:13:29;22.98;;;12.95;;
38937;SDS011;24727;51.974;20.868;2023-03-23T07:15:56;21.45;;;12.25;;
38937;SDS011;24727;51.974;20.868;2023-03-23T07:18:22;18.00;;;12.15;;
38937;SDS011;24727;51.974;20.868;2023-03-23T07:20:49;20.52;;;12.57;;
38937;SDS011;24727;51.974;20.868;2023-03-23T07:23:17;16.58;;;10.93;;
38937;SDS011;24727;51.974;20.868;2023-03-23T07:25:44;18.02;;;11.60;;
38937;SDS011;24727;51.974;20.868;2023-03-23T07:28:14;17.38;;;11.20;;
38937;SDS011;24727;51.974;20.868;2023-03-23T07:30:41;15.30;;;11.07;;
38937;SDS011;24727;51.974;20.868;2023-03-23T07:33:08;19.15;;;10.93;;
38937;SDS011;24727;51.974;20.868;2023-03-23T07:35:36;16.83;;;11.27;;
38937;SDS011;24727;51.974;20.868;2023-03-23T07:38:03;20.23;;;11.45;;
38937;SDS011;24727;51.974;20.868;2023-03-23T07:40:31;15.05;;;10.52;;
38937;SDS011;24727;51.974;20.868;2023-03-23T07:43:01;17.20;;;10.52;;
38937;SDS011;24727;51.974;20.868;2023-03-23T07:45:29;16.27;;;10.50;;
38937;SDS011;24727;51.974;20.868;2023-03-23T07:47:56;15.48;;;10.63;;
38937;SDS011;24727;51.974;20.868;2023-03-23T07:50:23;13.77;;;10.05;;
38937;SDS011;24727;51.974;20.868;2023-03-23T07:52:56;16.35;;;10.75;;
38937;SDS011;24727;51.974;20.868;2023-03-23T07:55:24;14.18;;;10.05;;
38937;SDS011;24727;51.974;20.868;2023-03-23T07:57:54;16.08;;;9.82;;
38937;SDS011;24727;51.974;20.868;2023-03-23T08:00:20;15.35;;;10.57;;
38937;SDS011;24727;51.974;20.868;2023-03-23T08:02:50;16.45;;;10.43;;
38937;SDS011;24727;51.974;20.868;2023-03-23T08:05:18;15.50;;;10.05;;
38937;SDS011;24727;51.974;20.868;2023-03-23T08:07:46;15.57;;;9.38;;
38937;SDS011;24727;51.974;20.868;2023-03-23T08:10:14;14.07;;;9.18;;
38937;SDS011;24727;51.974;20.868;2023-03-23T08:12:42;14.52;;;9.75;;
38937;SDS011;24727;51.974;20.868;2023-03-23T08:15:11;15.25;;;8.82;;
38937;SDS011;24727;51.974;20.868;2023-03-23T08:17:37;15.85;;;9.00;;
38937;SDS011;24727;51.974;20.868;2023-03-23T08:20:05;11.40;;;9.27;;
38937;SDS011;24727;51.974;20.868;2023-03-23T08:22:35;14.73;;;8.65;;
38937;SDS011;24727;51.974;20.868;2023-03-23T08:25:04;13.32;;;8.68;;
38937;SDS011;24727;51.974;20.868;2023-03-23T08:27:33;14.35;;;9.07;;
38937;SDS011;24727;51.974;20.868;2023-03-23T08:30:00;13.60;;;9.15;;
38937;SDS011;24727;51.974;20.868;2023-03-23T08:32:28;13.88;;;7.97;;
38937;SDS011;24727;51.974;20.868;2023-03-23T08:34:54;16.65;;;8.73;;
38937;SDS011;24727;51.974;20.868;2023-03-23T08:37:21;15.45;;;8.70;;
38937;SDS011;24727;51.974;20.868;2023-03-23T08:39:50;11.90;;;8.48;;
38937;SDS011;24727;51.974;20.868;2023-03-23T08:42:20;15.27;;;9.52;;
38937;SDS011;24727;51.974;20.868;2023-03-23T08:44:48;13.23;;;9.25;;
38937;SDS011;24727;51.974;20.868;2023-03-23T08:47:14;11.90;;;8.52;;
38937;SDS011;24727;51.974;20.868;2023-03-23T08:49:41;11.88;;;8.15;;
38937;SDS011;24727;51.974;20.868;2023-03-23T08:52:13;11.05;;;8.35;;
38937;SDS011;24727;51.974;20.868;2023-03-23T08:54:41;12.82;;;8.13;;
38937;SDS011;24727;51.974;20.868;2023-03-23T08:57:13;12.15;;;9.02;;
38937;SDS011;24727;51.974;20.868;2023-03-23T08:59:43;11.93;;;8.15;;
38937;SDS011;24727;51.974;20.868;2023-03-23T09:02:11;11.93;;;7.80;;
38937;SDS011;24727;51.974;20.868;2023-03-23T09:04:40;11.45;;;7.72;;
38937;SDS011;24727;51.974;20.868;2023-03-23T09:07:09;15.38;;;9.70;;
38937;SDS011;24727;51.974;20.868;2023-03-23T09:09:37;13.07;;;9.07;;
38937;SDS011;24727;51.974;20.868;2023-03-23T09:12:09;11.75;;;7.80;;
38937;SDS011;24727;51.974;20.868;2023-03-23T09:14:36;11.75;;;8.85;;
38937;SDS011;24727;51.974;20.868;2023-03-23T09:17:03;17.67;;;9.02;;
38937;SDS011;24727;51.974;20.868;2023-03-23T09:19:36;12.05;;;8.95;;
38937;SDS011;24727;51.974;20.868;2023-03-23T09:22:03;13.18;;;8.32;;
38937;SDS011;24727;51.974;20.868;2023-03-23T09:24:29;13.52;;;8.93;;
38937;SDS011;24727;51.974;20.868;2023-03-23T09:26:56;12.35;;;8.18;;
38937;SDS011;24727;51.974;20.868;2023-03-23T09:29:24;13.48;;;9.73;;
38937;SDS011;24727;51.974;20.868;2023-03-23T09:31:53;14.70;;;9.75;;
38937;SDS011;24727;51.974;20.868;2023-03-23T09:34:19;15.57;;;10.25;;
38937;SDS011;24727;51.974;20.868;2023-03-23T09:36:46;14.98;;;9.77;;
38937;SDS011;24727;51.974;20.868;2023-03-23T09:39:12;15.68;;;9.98;;
38937;SDS011;24727;51.974;20.868;2023-03-23T09:46:55;11.73;;;8.98;;
38937;SDS011;24727;51.974;20.868;2023-03-23T09:49:30;15.98;;;10.93;;
38937;SDS011;24727;51.974;20.868;2023-03-23T09:52:03;12.75;;;8.80;;
38937;SDS011;24727;51.974;20.868;2023-03-23T09:54:38;11.45;;;8.57;;
38937;SDS011;24727;51.974;20.868;2023-03-23T09:57:17;14.18;;;8.75;;
38937;SDS011;24727;51.974;20.868;2023-03-23T09:59:55;13.00;;;9.07;;
38937;SDS011;24727;51.974;20.868;2023-03-23T10:08:05;11.15;;;7.53;;
38937;SDS011;24727;51.974;20.868;2023-03-23T10:16:29;10.48;;;7.00;;
38937;SDS011;24727;51.974;20.868;2023-03-23T10:19:02;9.00;;;7.35;;
38937;SDS011;24727;51.974;20.868;2023-03-23T10:21:38;11.65;;;7.00;;
38937;SDS011;24727;51.974;20.868;2023-03-23T10:24:14;9.25;;;5.70;;
38937;SDS011;24727;51.974;20.868;2023-03-23T10:29:16;9.98;;;6.80;;
38937;SDS011;24727;51.974;20.868;2023-03-23T10:31:53;8.90;;;6.38;;
38937;SDS011;24727;51.974;20.868;2023-03-23T10:34:35;9.27;;;6.50;;
38937;SDS011;24727;51.974;20.868;2023-03-23T10:39:58;7.45;;;4.78;;
38937;SDS011;24727;51.974;20.868;2023-03-23T10:42:31;6.35;;;4.63;;
38937;SDS011;24727;51.974;20.868;2023-03-23T10:47:42;6.22;;;4.53;;
38937;SDS011;24727;51.974;20.868;2023-03-23T10:50:21;10.63;;;6.05;;
38937;SDS011;24727;51.974;20.868;2023-03-23T10:52:54;8.43;;;4.70;;
38937;SDS011;24727;51.974;20.868;2023-03-23T10:55:23;8.30;;;4.85;;
38937;SDS011;24727;51.974;20.868;2023-03-23T10:58:01;7.28;;;4.85;;
38937;SDS011;24727;51.974;20.868;2023-03-23T11:00:33;6.65;;;4.53;;
38937;SDS011;24727;51.974;20.868;2023-03-23T11:03:07;5.93;;;3.97;;
38937;SDS011;24727;51.974;20.868;2023-03-23T11:05:57;5.57;;;3.60;;
38937;SDS011;24727;51.974;20.868;2023-03-23T11:08:28;5.70;;;3.38;;
38937;SDS011;24727;51.974;20.868;2023-03-23T11:13:39;5.78;;;2.75;;
38937;SDS011;24727;51.974;20.868;2023-03-23T11:16:09;4.40;;;2.90;;
38937;SDS011;24727;51.974;20.868;2023-03-23T11:18:38;3.88;;;2.60;;
38937;SDS011;24727;51.974;20.868;2023-03-23T11:21:07;3.70;;;2.75;;
38937;SDS011;24727;51.974;20.868;2023-03-23T11:23:47;3.53;;;2.63;;
38937;SDS011;24727;51.974;20.868;2023-03-23T11:29:14;3.90;;;2.63;;
38937;SDS011;24727;51.974;20.868;2023-03-23T11:31:47;4.57;;;3.10;;
38937;SDS011;24727;51.974;20.868;2023-03-23T11:34:25;5.75;;;2.83;;
38937;SDS011;24727;51.974;20.868;2023-03-23T11:39:31;6.15;;;3.00;;
38937;SDS011;24727;51.974;20.868;2023-03-23T11:41:59;4.88;;;3.80;;
38937;SDS011;24727;51.974;20.868;2023-03-23T11:44:41;8.82;;;4.28;;
38937;SDS011;24727;51.974;20.868;2023-03-23T11:47:24;12.38;;;3.30;;
38937;SDS011;24727;51.974;20.868;2023-03-23T11:50:01;4.85;;;3.80;;
38937;SDS011;24727;51.974;20.868;2023-03-23T11:55:52;6.65;;;3.55;;
38937;SDS011;24727;51.974;20.868;2023-03-23T11:58:19;6.35;;;3.70;;
38937;SDS011;24727;51.974;20.868;2023-03-23T12:01:06;5.70;;;4.05;;
38937;SDS011;24727;51.974;20.868;2023-03-23T12:06:30;5.97;;;3.33;;
38937;SDS011;24727;51.974;20.868;2023-03-23T12:09:36;8.55;;;3.63;;
38937;SDS011;24727;51.974;20.868;2023-03-23T12:23:33;5.10;;;3.90;;
38937;SDS011;24727;51.974;20.868;2023-03-23T12:26:22;4.75;;;3.47;;
38937;SDS011;24727;51.974;20.868;2023-03-23T12:34:55;6.05;;;4.03;;
38937;SDS011;24727;51.974;20.868;2023-03-23T12:37:59;4.13;;;3.42;;
38937;SDS011;24727;51.974;20.868;2023-03-23T12:43:01;4.90;;;3.85;;
38937;SDS011;24727;51.974;20.868;2023-03-23T12:48:28;4.97;;;4.07;;
38937;SDS011;24727;51.974;20.868;2023-03-23T12:57:11;6.60;;;3.70;;
38937;SDS011;24727;51.974;20.868;2023-03-23T13:02:28;5.55;;;4.00;;
38937;SDS011;24727;51.974;20.868;2023-03-23T13:04:59;5.03;;;4.03;;
38937;SDS011;24727;51.974;20.868;2023-03-23T13:07:43;5.65;;;4.07;;
38937;SDS011;24727;51.974;20.868;2023-03-23T13:12:49;5.05;;;4.03;;
38937;SDS011;24727;51.974;20.868;2023-03-23T13:17:54;7.80;;;4.05;;
38937;SDS011;24727;51.974;20.868;2023-03-23T13:23:33;4.90;;;3.42;;
38937;SDS011;24727;51.974;20.868;2023-03-23T13:28:47;3.40;;;3.10;;
38937;SDS011;24727;51.974;20.868;2023-03-23T13:31:22;6.30;;;2.42;;
38937;SDS011;24727;51.974;20.868;2023-03-23T13:34:38;4.88;;;2.30;;
38937;SDS011;24727;51.974;20.868;2023-03-23T13:36:53;4.50;;;2.25;;
38937;SDS011;24727;51.974;20.868;2023-03-23T13:39:23;8.23;;;2.47;;
38937;SDS011;24727;51.974;20.868;2023-03-23T13:49:53;4.28;;;2.33;;
38937;SDS011;24727;51.974;20.868;2023-03-23T13:57:57;9.63;;;2.88;;
38937;SDS011;24727;51.974;20.868;2023-03-23T14:00:49;4.18;;;2.47;;
38937;SDS011;24727;51.974;20.868;2023-03-23T14:03:38;4.85;;;2.75;;
38937;SDS011;24727;51.974;20.868;2023-03-23T14:06:07;4.32;;;2.50;;
38937;SDS011;24727;51.974;20.868;2023-03-23T14:08:43;4.00;;;2.47;;
38937;SDS011;24727;51.974;20.868;2023-03-23T14:11:15;3.40;;;2.42;;
38937;SDS011;24727;51.974;20.868;2023-03-23T14:14:02;6.15;;;2.35;;
38937;SDS011;24727;51.974;20.868;2023-03-23T14:16:36;5.95;;;2.95;;
38937;SDS011;24727;51.974;20.868;2023-03-23T14:19:13;4.93;;;2.50;;
38937;SDS011;24727;51.974;20.868;2023-03-23T14:21:57;3.85;;;3.15;;
38937;SDS011;24727;51.974;20.868;2023-03-23T14:26:52;4.22;;;3.08;;
38937;SDS011;24727;51.974;20.868;2023-03-23T14:29:26;5.75;;;3.20;;
38937;SDS011;24727;51.974;20.868;2023-03-23T14:31:56;7.53;;;3.08;;
38937;SDS011;24727;51.974;20.868;2023-03-23T14:34:25;5.32;;;3.30;;
38937;SDS011;24727;51.974;20.868;2023-03-23T14:36:56;10.65;;;3.47;;
38937;SDS011;24727;51.974;20.868;2023-03-23T14:41:50;13.90;;;3.22;;
38937;SDS011;24727;51.974;20.868;2023-03-23T14:44:26;5.95;;;2.80;;
38937;SDS011;24727;51.974;20.868;2023-03-23T14:47:02;6.38;;;3.20;;
38937;SDS011;24727;51.974;20.868;2023-03-23T14:49:33;6.10;;;2.83;;
38937;SDS011;24727;51.974;20.868;2023-03-23T14:52:14;4.85;;;3.10;;
38937;SDS011;24727;51.974;20.868;2023-03-23T14:54:43;4.90;;;2.80;;
38937;SDS011;24727;51.974;20.868;2023-03-23T14:57:12;4.05;;;2.97;;
38937;SDS011;24727;51.974;20.868;2023-03-23T14:59:44;4.68;;;2.95;;
38937;SDS011;24727;51.974;20.868;2023-03-23T15:02:20;5.25;;;3.10;;
38937;SDS011;24727;51.974;20.868;2023-03-23T15:05:03;7.10;;;3.22;;
38937;SDS011;24727;51.974;20.868;2023-03-23T15:07:37;4.15;;;2.75;;
38937;SDS011;24727;51.974;20.868;2023-03-23T15:10:09;8.15;;;2.88;;
38937;SDS011;24727;51.974;20.868;2023-03-23T15:12:43;6.43;;;3.45;;
38937;SDS011;24727;51.974;20.868;2023-03-23T15:15:27;4.78;;;2.78;;
38937;SDS011;24727;51.974;20.868;2023-03-23T15:17:59;4.50;;;2.83;;
38937;SDS011;24727;51.974;20.868;2023-03-23T15:20:28;4.70;;;3.05;;
38937;SDS011;24727;51.974;20.868;2023-03-23T15:23:14;6.28;;;2.92;;
38937;SDS011;24727;51.974;20.868;2023-03-23T15:25:51;4.72;;;3.17;;
38937;SDS011;24727;51.974;20.868;2023-03-23T15:28:31;3.83;;;3.03;;
38937;SDS011;24727;51.974;20.868;2023-03-23T15:31:03;5.45;;;3.05;;
38937;SDS011;24727;51.974;20.868;2023-03-23T15:36:06;4.22;;;2.80;;
38937;SDS011;24727;51.974;20.868;2023-03-23T15:38:34;4.68;;;3.20;;
38937;SDS011;24727;51.974;20.868;2023-03-23T15:41:21;4.82;;;3.47;;
38937;SDS011;24727;51.974;20.868;2023-03-23T15:43:50;6.88;;;3.35;;
38937;SDS011;24727;51.974;20.868;2023-03-23T15:46:22;5.38;;;3.30;;
38937;SDS011;24727;51.974;20.868;2023-03-23T15:51:28;5.68;;;3.47;;
38937;SDS011;24727;51.974;20.868;2023-03-23T15:53:56;20.35;;;4.13;;
38937;SDS011;24727;51.974;20.868;2023-03-23T15:56:28;5.13;;;3.08;;
38937;SDS011;24727;51.974;20.868;2023-03-23T15:58:57;12.90;;;3.60;;
38937;SDS011;24727;51.974;20.868;2023-03-23T16:01:26;6.15;;;3.47;;
38937;SDS011;24727;51.974;20.868;2023-03-23T16:03:54;6.13;;;3.45;;
38937;SDS011;24727;51.974;20.868;2023-03-23T16:06:26;5.70;;;3.78;;
38937;SDS011;24727;51.974;20.868;2023-03-23T16:08:56;9.02;;;3.45;;
38937;SDS011;24727;51.974;20.868;2023-03-23T16:11:23;5.95;;;3.53;;
38937;SDS011;24727;51.974;20.868;2023-03-23T16:13:51;4.80;;;3.30;;
38937;SDS011;24727;51.974;20.868;2023-03-23T16:16:18;3.60;;;2.72;;
38937;SDS011;24727;51.974;20.868;2023-03-23T16:18:48;5.93;;;2.88;;
38937;SDS011;24727;51.974;20.868;2023-03-23T16:21:16;3.55;;;2.70;;
38937;SDS011;24727;51.974;20.868;2023-03-23T16:23:41;9.23;;;2.97;;
38937;SDS011;24727;51.974;20.868;2023-03-23T16:26:10;5.75;;;2.95;;
38937;SDS011;24727;51.974;20.868;2023-03-23T16:28:39;10.02;;;3.75;;
38937;SDS011;24727;51.974;20.868;2023-03-23T16:31:06;4.38;;;2.60;;
38937;SDS011;24727;51.974;20.868;2023-03-23T16:33:32;3.47;;;2.90;;
38937;SDS011;24727;51.974;20.868;2023-03-23T16:35:58;6.03;;;3.65;;
38937;SDS011;24727;51.974;20.868;2023-03-23T16:38:25;5.25;;;2.78;;
38937;SDS011;24727;51.974;20.868;2023-03-23T16:40:51;9.00;;;3.00;;